createdAt,value
2022-12-29T00:01:03.732Z,37.42
2022-12-29T00:03:31.990Z,37.42
2022-12-29T00:06:01.955Z,37.44
2022-12-29T00:08:40.802Z,37.43
2022-12-29T00:11:09.870Z,37.52
2022-12-29T00:13:55.177Z,37.39
2022-12-29T00:16:25.157Z,37.50
2022-12-29T00:18:53.283Z,37.56
2022-12-29T00:21:40.996Z,37.50
2022-12-29T00:24:31.306Z,37.52
2022-12-29T00:27:28.747Z,37.58
2022-12-29T00:30:14.120Z,37.50
2022-12-29T00:33:01.163Z,37.49
2022-12-29T00:35:32.565Z,37.55
2022-12-29T00:38:22.031Z,37.53
2022-12-29T00:41:07.805Z,37.52
2022-12-29T00:43:53.523Z,37.46
2022-12-29T00:46:21.696Z,37.55
2022-12-29T00:49:08.762Z,37.56
2022-12-29T00:51:36.877Z,37.62
2022-12-29T00:54:05.122Z,37.51
2022-12-29T00:56:33.212Z,37.63
2022-12-29T00:59:02.981Z,37.54
2022-12-29T01:01:31.394Z,37.65
2022-12-29T01:04:04.117Z,37.60
2022-12-29T01:06:33.123Z,37.71
2022-12-29T01:09:18.614Z,37.74
2022-12-29T01:11:46.908Z,37.67
2022-12-29T01:14:15.147Z,37.67
2022-12-29T01:16:43.432Z,37.75
2022-12-29T01:19:13.185Z,37.70
2022-12-29T01:21:41.271Z,37.71
2022-12-29T01:24:09.452Z,37.66
2022-12-29T01:26:37.573Z,37.79
2022-12-29T01:29:05.654Z,37.73
2022-12-29T01:31:33.806Z,37.82
2022-12-29T01:34:02.098Z,37.81
2022-12-29T01:36:32.238Z,37.72
2022-12-29T01:39:00.384Z,37.80
2022-12-29T01:41:28.857Z,37.73
2022-12-29T01:43:58.747Z,37.85
2022-12-29T01:46:30.508Z,37.74
2022-12-29T01:49:04.820Z,37.68
2022-12-29T01:51:37.882Z,37.74
2022-12-29T01:54:11.651Z,37.79
2022-12-29T01:56:39.732Z,37.90
2022-12-29T01:59:13.495Z,37.80
2022-12-29T02:01:42.696Z,37.82
2022-12-29T02:04:13.563Z,37.81
2022-12-29T02:06:48.539Z,37.83
2022-12-29T02:09:16.616Z,37.85
2022-12-29T02:11:46.461Z,37.81
2022-12-29T02:14:16.329Z,37.77
2022-12-29T02:17:00.284Z,38.10
2022-12-29T02:20:06.866Z,38.09
2022-12-29T02:22:47.172Z,37.85
2022-12-29T02:25:47.824Z,38.04
2022-12-29T02:28:40.731Z,38.09
2022-12-29T02:31:19.828Z,37.96
2022-12-29T02:33:59.674Z,38.00
2022-12-29T02:36:35.122Z,37.99
2022-12-29T02:39:13.567Z,37.95
2022-12-29T02:41:54.457Z,37.92
2022-12-29T02:44:31.293Z,37.96
2022-12-29T02:47:06.862Z,37.96
2022-12-29T02:49:40.651Z,37.93
2022-12-29T02:52:13.209Z,37.82
2022-12-29T02:54:44.834Z,37.92
2022-12-29T02:57:29.735Z,38.06
2022-12-29T03:00:02.132Z,37.95
2022-12-29T03:02:51.283Z,38.05
2022-12-29T03:05:42.891Z,38.31
2022-12-29T03:08:24.627Z,38.03
2022-12-29T03:11:01.659Z,38.05
2022-12-29T03:13:53.633Z,38.10
2022-12-29T03:16:25.732Z,38.08
2022-12-29T03:19:01.853Z,38.17
2022-12-29T03:21:53.868Z,38.05
2022-12-29T03:24:24.901Z,38.09
2022-12-29T03:26:57.190Z,38.05
2022-12-29T03:29:27.671Z,38.00
2022-12-29T03:31:57.762Z,38.12
2022-12-29T03:34:28.786Z,38.04
2022-12-29T03:37:05.054Z,38.16
2022-12-29T03:39:34.026Z,38.11
2022-12-29T03:42:07.347Z,38.07
2022-12-29T03:44:37.554Z,38.04
2022-12-29T03:47:06.011Z,38.10
2022-12-29T03:49:35.852Z,38.13
2022-12-29T03:52:04.433Z,38.18
2022-12-29T03:54:33.144Z,38.13
2022-12-29T03:57:01.253Z,38.22
2022-12-29T03:59:29.363Z,38.20
2022-12-29T04:01:57.480Z,38.13
2022-12-29T04:04:25.635Z,38.08
2022-12-29T04:06:55.127Z,38.16
2022-12-29T04:09:23.180Z,38.09
2022-12-29T04:11:51.265Z,38.17
2022-12-29T04:14:19.532Z,38.14
2022-12-29T04:16:47.637Z,38.15
2022-12-29T04:19:15.818Z,38.17
2022-12-29T04:21:43.925Z,38.23
2022-12-29T04:24:14.091Z,38.15
2022-12-29T04:26:42.716Z,38.08
2022-12-29T04:29:10.779Z,38.20
2022-12-29T04:31:38.949Z,38.19
2022-12-29T04:34:07.128Z,38.18
2022-12-29T04:36:35.282Z,38.25
2022-12-29T04:39:03.403Z,38.33
2022-12-29T04:41:32.975Z,38.24
2022-12-29T04:44:01.106Z,38.20
2022-12-29T04:46:29.272Z,38.19
2022-12-29T04:48:57.436Z,38.22
2022-12-29T04:51:25.574Z,38.27
2022-12-29T04:53:53.683Z,38.27
2022-12-29T04:56:21.845Z,38.23
2022-12-29T04:58:51.335Z,38.26
2022-12-29T05:01:19.595Z,38.31
2022-12-29T05:03:47.785Z,38.29
2022-12-29T05:06:15.951Z,38.30
2022-12-29T05:08:44.055Z,38.25
2022-12-29T05:11:12.151Z,38.27
2022-12-29T05:13:40.276Z,38.29
2022-12-29T05:16:10.017Z,38.30
2022-12-29T05:18:38.168Z,38.33
2022-12-29T05:21:06.441Z,38.40
2022-12-29T05:23:34.471Z,38.35
2022-12-29T05:26:02.533Z,38.47
2022-12-29T05:28:30.639Z,38.36
2022-12-29T05:30:58.812Z,38.37
2022-12-29T05:33:28.346Z,38.36
2022-12-29T05:35:56.385Z,38.44
2022-12-29T05:38:24.477Z,38.42
2022-12-29T05:40:52.509Z,38.42
2022-12-29T05:43:20.539Z,38.46
2022-12-29T05:45:50.806Z,38.37
2022-12-29T05:48:18.844Z,38.59
2022-12-29T05:50:50.769Z,38.64
2022-12-29T05:53:19.594Z,38.51
2022-12-29T05:55:49.443Z,38.53
2022-12-29T05:58:17.610Z,38.48
2022-12-29T06:00:45.877Z,38.52
2022-12-29T06:03:14.093Z,38.55
2022-12-29T06:05:42.246Z,38.56
2022-12-29T06:08:11.687Z,38.46
2022-12-29T06:10:39.753Z,38.50
2022-12-29T06:13:08.031Z,38.50
2022-12-29T06:15:37.210Z,38.51
2022-12-29T06:18:05.302Z,38.62
2022-12-29T06:20:33.412Z,38.55
2022-12-29T06:23:01.664Z,38.64
2022-12-29T06:25:33.336Z,38.48
2022-12-29T06:28:01.809Z,38.54
2022-12-29T06:30:29.920Z,38.71
2022-12-29T06:32:58.036Z,38.60
2022-12-29T06:35:26.235Z,38.56
2022-12-29T06:37:54.412Z,38.57
2022-12-29T06:40:22.741Z,38.47
2022-12-29T06:42:52.368Z,38.61
2022-12-29T06:45:20.453Z,38.62
2022-12-29T06:47:48.564Z,38.71
2022-12-29T06:50:16.730Z,38.57
2022-12-29T06:52:45.420Z,38.77
2022-12-29T06:55:13.494Z,38.61
2022-12-29T06:57:41.597Z,38.74
2022-12-29T07:00:12.404Z,38.54
2022-12-29T07:02:40.754Z,38.69
2022-12-29T07:05:10.422Z,38.72
2022-12-29T07:07:38.525Z,38.60
2022-12-29T07:10:07.304Z,38.52
2022-12-29T07:12:35.497Z,38.65
2022-12-29T07:15:03.812Z,38.75
2022-12-29T07:17:33.349Z,38.65
2022-12-29T07:20:01.979Z,38.64
2022-12-29T07:22:30.047Z,38.81
2022-12-29T07:24:58.164Z,38.72
2022-12-29T07:27:26.289Z,38.65
2022-12-29T07:29:54.393Z,38.79
2022-12-29T07:32:22.616Z,38.63
2022-12-29T07:34:52.219Z,38.76
2022-12-29T07:37:21.057Z,38.74
2022-12-29T07:39:49.192Z,38.74
2022-12-29T07:42:17.285Z,38.92
2022-12-29T07:44:46.223Z,38.76
2022-12-29T07:47:14.392Z,38.87
2022-12-29T07:49:42.461Z,38.89
2022-12-29T07:52:12.019Z,38.86
2022-12-29T07:54:40.679Z,38.75
2022-12-29T07:57:08.778Z,38.76
2022-12-29T07:59:36.940Z,38.72
2022-12-29T08:02:05.177Z,38.96
2022-12-29T08:04:33.342Z,38.85
2022-12-29T08:07:01.929Z,38.83
2022-12-29T08:09:31.502Z,38.80
2022-12-29T08:11:59.579Z,38.74
2022-12-29T08:14:27.725Z,38.92
2022-12-29T08:16:55.819Z,38.93
2022-12-29T08:19:23.927Z,38.88
2022-12-29T08:21:52.347Z,38.87
2022-12-29T08:24:20.422Z,38.90
2022-12-29T08:26:49.954Z,38.87
2022-12-29T08:29:18.046Z,38.82
2022-12-29T08:31:46.512Z,39.11
2022-12-29T08:34:14.698Z,38.92
2022-12-29T08:36:42.817Z,38.92
2022-12-29T08:39:11.392Z,38.89
2022-12-29T08:41:39.573Z,38.95
2022-12-29T08:44:09.137Z,39.04
2022-12-29T08:46:37.314Z,38.95
2022-12-29T08:49:05.539Z,38.93
2022-12-29T08:51:33.637Z,39.04
2022-12-29T08:54:01.955Z,39.00
2022-12-29T08:56:30.444Z,38.97
2022-12-29T08:58:58.773Z,39.05
2022-12-29T09:01:28.381Z,38.99
2022-12-29T09:06:45.517Z,38.88
2022-12-29T09:09:14.303Z,38.98
2022-12-29T09:11:44.321Z,38.93
2022-12-29T09:14:12.540Z,38.90
2022-12-29T09:17:00.624Z,38.92
2022-12-29T09:19:28.679Z,38.92
2022-12-29T09:21:56.718Z,39.18
2022-12-29T09:24:24.855Z,38.98
2022-12-29T09:26:52.891Z,38.93
2022-12-29T09:29:20.935Z,38.94
2022-12-29T09:31:50.440Z,39.02
2022-12-29T09:34:18.812Z,39.13
2022-12-29T09:36:46.895Z,39.17
2022-12-29T09:39:15.257Z,39.00
2022-12-29T09:41:51.127Z,39.10
2022-12-29T09:44:25.287Z,39.17
2022-12-29T09:46:56.893Z,39.01
2022-12-29T09:49:32.106Z,39.17
2022-12-29T09:52:07.031Z,39.34
2022-12-29T09:54:53.708Z,39.41
2022-12-29T09:57:29.801Z,39.06
2022-12-29T10:00:01.903Z,39.08
2022-12-29T10:02:39.403Z,39.05
2022-12-29T10:05:18.414Z,39.15
2022-12-29T10:07:55.743Z,39.10
2022-12-29T10:10:37.139Z,39.25
2022-12-29T10:13:23.558Z,39.23
2022-12-29T10:16:04.687Z,39.33
2022-12-29T10:18:57.987Z,39.49
2022-12-29T10:21:40.072Z,39.15
2022-12-29T10:24:12.327Z,39.14
2022-12-29T10:26:43.820Z,39.26
2022-12-29T10:29:21.082Z,39.21
2022-12-29T10:31:52.957Z,39.11
2022-12-29T10:34:27.644Z,39.46
2022-12-29T10:37:02.257Z,39.09
2022-12-29T10:39:35.132Z,39.27
2022-12-29T10:42:16.122Z,39.18
2022-12-29T10:44:44.364Z,39.23
2022-12-29T10:47:17.623Z,39.11
2022-12-29T10:49:49.963Z,39.26
2022-12-29T10:52:21.517Z,39.18
2022-12-29T10:54:54.416Z,39.28
2022-12-29T10:57:28.552Z,39.20
2022-12-29T10:59:56.924Z,39.15
2022-12-29T11:02:44.259Z,39.23
2022-12-29T11:05:24.663Z,39.49
2022-12-29T11:07:55.629Z,39.20
2022-12-29T11:10:36.361Z,39.49
2022-12-29T11:13:07.200Z,39.32
2022-12-29T11:15:42.048Z,39.32
2022-12-29T11:18:21.367Z,39.63
2022-12-29T11:20:51.933Z,39.31
2022-12-29T11:23:30.745Z,39.53
2022-12-29T11:26:19.880Z,39.62
2022-12-29T11:28:52.540Z,39.37
2022-12-29T11:31:24.312Z,39.32
2022-12-29T11:33:52.415Z,39.33
2022-12-29T11:36:25.484Z,39.41
2022-12-29T11:38:55.662Z,39.36
2022-12-29T11:41:26.316Z,39.26
2022-12-29T11:43:56.412Z,39.45
2022-12-29T11:46:28.643Z,39.53
2022-12-29T11:48:59.729Z,39.31
2022-12-29T11:51:32.771Z,39.55
2022-12-29T11:54:03.773Z,39.35
2022-12-29T11:56:41.618Z,39.65
2022-12-29T11:59:42.388Z,40.06
2022-12-29T12:02:43.054Z,39.91
2022-12-29T12:05:28.146Z,39.46
2022-12-29T12:08:04.391Z,39.53
2022-12-29T12:10:39.728Z,39.49
2022-12-29T12:13:17.037Z,39.39
2022-12-29T12:15:54.537Z,39.36
2022-12-29T12:18:34.545Z,39.48
2022-12-29T12:21:11.581Z,39.64
2022-12-29T12:23:54.414Z,39.61
2022-12-29T12:26:30.364Z,39.52
2022-12-29T12:29:03.265Z,39.63
2022-12-29T12:31:45.596Z,39.71
2022-12-29T12:34:18.488Z,39.60
2022-12-29T12:36:58.807Z,39.50
2022-12-29T12:39:39.313Z,39.62
2022-12-29T12:42:22.242Z,39.52
2022-12-29T12:45:02.012Z,39.57
2022-12-29T12:47:47.635Z,39.84
2022-12-29T12:50:29.580Z,39.48
2022-12-29T12:53:12.111Z,39.74
2022-12-29T12:55:55.161Z,39.78
2022-12-29T12:58:33.201Z,39.73
2022-12-29T13:01:14.428Z,39.72
2022-12-29T13:03:56.126Z,39.65
2022-12-29T13:06:37.480Z,39.61
2022-12-29T13:09:23.617Z,39.88
2022-12-29T13:12:06.782Z,39.62
2022-12-29T13:14:46.752Z,39.68
2022-12-29T13:17:28.615Z,39.73
2022-12-29T13:20:11.207Z,39.67
2022-12-29T13:22:48.231Z,39.73
2022-12-29T13:25:33.368Z,39.98
2022-12-29T13:28:08.288Z,39.71
2022-12-29T13:30:47.297Z,39.57
2022-12-29T13:33:26.624Z,39.88
2022-12-29T13:36:03.142Z,39.71
2022-12-29T13:38:37.684Z,39.84
2022-12-29T13:41:10.345Z,39.57
2022-12-29T13:43:44.519Z,39.64
2022-12-29T13:46:15.872Z,39.66
2022-12-29T13:48:52.053Z,39.70
2022-12-29T13:51:27.653Z,39.63
2022-12-29T13:54:14.503Z,39.77
2022-12-29T13:56:49.377Z,39.67
2022-12-29T13:59:26.423Z,39.58
2022-12-29T14:02:01.300Z,39.68
2022-12-29T14:04:34.157Z,39.74
2022-12-29T14:07:05.066Z,39.66
2022-12-29T14:09:44.482Z,39.84
2022-12-29T14:12:34.702Z,40.01
2022-12-29T14:15:17.741Z,39.74
2022-12-29T14:17:46.523Z,39.54
2022-12-29T14:20:23.654Z,39.77
2022-12-29T14:23:00.670Z,39.88
2022-12-29T14:26:11.542Z,39.80
2022-12-29T14:28:41.180Z,39.57
2022-12-29T14:31:42.496Z,40.16
2022-12-29T14:34:29.913Z,39.99
2022-12-29T14:36:59.581Z,39.65
2022-12-29T14:39:38.981Z,39.91
2022-12-29T14:42:13.221Z,39.68
2022-12-29T14:44:50.217Z,39.87
2022-12-29T14:47:22.782Z,39.83
2022-12-29T14:49:51.220Z,39.62
2022-12-29T14:52:23.032Z,39.79
2022-12-29T14:54:56.021Z,39.67
2022-12-29T14:57:39.650Z,40.06
2022-12-29T15:00:17.012Z,39.72
2022-12-29T15:02:51.070Z,39.63
2022-12-29T15:05:31.998Z,40.00
2022-12-29T15:08:01.115Z,39.62
2022-12-29T15:10:38.060Z,39.83
2022-12-29T15:13:16.047Z,39.84
2022-12-29T15:15:44.203Z,39.67
2022-12-29T15:18:25.797Z,39.92
2022-12-29T15:20:57.482Z,39.65
2022-12-29T15:23:26.032Z,39.73
2022-12-29T15:25:57.456Z,39.86
2022-12-29T15:28:26.211Z,39.67
2022-12-29T15:30:57.222Z,39.76
2022-12-29T15:33:29.699Z,39.81
2022-12-29T15:36:04.180Z,39.76
2022-12-29T15:38:40.041Z,39.55
2022-12-29T15:41:15.959Z,39.80
2022-12-29T15:43:54.733Z,39.87
2022-12-29T15:46:23.048Z,39.80
2022-12-29T15:48:53.021Z,39.68
2022-12-29T15:51:24.606Z,39.64
2022-12-29T15:53:54.279Z,39.75
2022-12-29T15:56:22.547Z,40.01
2022-12-29T15:58:52.487Z,39.76
2022-12-29T16:01:22.460Z,39.87
2022-12-29T16:03:52.830Z,39.98
2022-12-29T16:06:33.498Z,39.96
2022-12-29T16:09:04.654Z,39.71
2022-12-29T16:11:36.857Z,39.83
2022-12-29T16:14:09.988Z,39.85
2022-12-29T16:16:40.876Z,39.83
2022-12-29T16:19:16.429Z,39.91
2022-12-29T16:21:45.651Z,39.72
2022-12-29T16:24:17.922Z,39.76
2022-12-29T16:26:51.810Z,39.89
2022-12-29T16:29:23.051Z,39.75
2022-12-29T16:32:01.333Z,39.76
2022-12-29T16:34:34.273Z,39.77
2022-12-29T16:37:04.762Z,39.92
2022-12-29T16:39:36.936Z,39.76
2022-12-29T16:42:38.447Z,40.19
2022-12-29T16:45:56.206Z,40.31
2022-12-29T16:48:27.985Z,39.97
2022-12-29T16:51:04.325Z,40.06
2022-12-29T16:53:37.009Z,39.97
2022-12-29T16:56:10.416Z,39.77
2022-12-29T16:58:38.857Z,39.95
2022-12-29T17:01:15.541Z,39.81
2022-12-29T17:03:48.681Z,39.90
2022-12-29T17:06:19.238Z,39.83
2022-12-29T17:08:48.639Z,39.89
2022-12-29T17:11:41.851Z,39.86
2022-12-29T17:14:22.681Z,40.08
2022-12-29T17:16:51.046Z,39.94
2022-12-29T17:19:20.285Z,39.89
2022-12-29T17:21:49.774Z,39.98
2022-12-29T17:24:19.846Z,39.77
2022-12-29T17:26:51.408Z,39.76
2022-12-29T17:29:23.915Z,40.01
2022-12-29T17:31:54.494Z,39.99
2022-12-29T17:34:23.129Z,39.74
2022-12-29T17:36:52.586Z,39.89
2022-12-29T17:39:20.667Z,39.99
2022-12-29T17:41:49.276Z,39.97
2022-12-29T17:44:19.890Z,39.85
2022-12-29T17:46:49.519Z,39.99
2022-12-29T17:49:19.694Z,39.85
2022-12-29T17:51:48.582Z,39.90
2022-12-29T17:54:22.964Z,39.89
2022-12-29T17:56:51.268Z,39.93
2022-12-29T17:59:19.987Z,39.93
2022-12-29T18:01:50.146Z,39.96
2022-12-29T18:04:20.643Z,39.92
2022-12-29T18:06:48.801Z,39.95
2022-12-29T18:09:18.393Z,39.88
2022-12-29T18:11:47.916Z,39.92
2022-12-29T18:14:17.897Z,39.86
2022-12-29T18:16:45.997Z,39.86
2022-12-29T18:19:14.168Z,39.97
2022-12-29T18:21:44.630Z,39.90
2022-12-29T18:24:15.984Z,39.91
2022-12-29T18:26:44.068Z,39.88
2022-12-29T18:29:13.809Z,39.98
2022-12-29T18:31:41.869Z,39.97
2022-12-29T18:34:15.438Z,39.86
2022-12-29T18:36:43.486Z,39.95
2022-12-29T18:39:12.432Z,40.03
2022-12-29T18:41:40.534Z,40.02
2022-12-29T18:44:14.827Z,39.90
2022-12-29T18:46:42.971Z,39.88
2022-12-29T18:49:11.032Z,39.90
2022-12-29T18:51:39.167Z,39.93
2022-12-29T18:54:07.248Z,39.97
2022-12-29T18:56:35.362Z,39.86
2022-12-29T18:59:03.423Z,39.92
2022-12-29T19:01:32.927Z,39.98
2022-12-29T19:04:01.124Z,40.05
2022-12-29T19:06:29.165Z,40.01
2022-12-29T19:08:57.234Z,39.86
2022-12-29T19:11:26.132Z,39.87
2022-12-29T19:13:54.171Z,39.88
2022-12-29T19:16:23.772Z,39.89
2022-12-29T19:19:08.397Z,39.87
2022-12-29T19:21:37.772Z,40.01
2022-12-29T19:24:06.090Z,39.95
2022-12-29T19:26:36.593Z,39.94
2022-12-29T19:29:05.628Z,39.87
2022-12-29T19:31:33.786Z,40.03
2022-12-29T19:34:03.992Z,39.84
2022-12-29T19:36:32.260Z,39.92
2022-12-29T19:39:00.717Z,39.96
2022-12-29T19:41:28.899Z,39.88
2022-12-29T19:43:57.352Z,39.90
2022-12-29T19:46:25.811Z,39.97
2022-12-29T19:48:54.981Z,39.95
2022-12-29T19:51:24.435Z,39.84
2022-12-29T19:53:52.707Z,39.98
2022-12-29T19:56:20.981Z,39.84
2022-12-29T19:58:50.347Z,39.83
2022-12-29T20:01:20.356Z,39.96
2022-12-29T20:03:48.820Z,39.82
2022-12-29T20:06:17.552Z,39.98
2022-12-29T20:08:47.205Z,39.95
2022-12-29T20:11:16.853Z,40.03
2022-12-29T20:13:45.641Z,39.86
2022-12-29T20:16:16.161Z,39.98
2022-12-29T20:18:45.004Z,39.97
2022-12-29T20:21:14.948Z,39.87
2022-12-29T20:23:44.943Z,39.95
2022-12-29T20:26:18.629Z,39.94
2022-12-29T20:28:47.068Z,39.95
2022-12-29T20:31:19.734Z,39.89
2022-12-29T20:33:48.742Z,39.95
2022-12-29T20:36:18.522Z,39.89
2022-12-29T20:38:48.547Z,39.91
2022-12-29T20:41:18.706Z,39.92
2022-12-29T20:43:46.875Z,39.98
2022-12-29T20:46:20.520Z,39.92
2022-12-29T20:48:49.689Z,39.89
2022-12-29T20:51:17.886Z,39.86
2022-12-29T20:53:46.100Z,40.01
2022-12-29T20:56:18.392Z,39.86
2022-12-29T20:59:25.231Z,39.87
2022-12-29T21:01:36.011Z,39.90
2022-12-29T21:04:05.667Z,39.85
2022-12-29T21:06:34.177Z,39.99
2022-12-29T21:09:02.383Z,39.88
2022-12-29T21:11:31.937Z,39.96
2022-12-29T21:14:01.534Z,40.00
2022-12-29T21:16:30.545Z,40.02
2022-12-29T21:18:58.927Z,40.01
2022-12-29T21:21:27.661Z,39.91
2022-12-29T21:23:56.062Z,39.87
2022-12-29T21:26:25.176Z,40.06
2022-12-29T21:28:54.712Z,40.03
2022-12-29T21:31:27.747Z,39.91
2022-12-29T21:33:57.016Z,39.99
2022-12-29T21:36:27.971Z,39.91
2022-12-29T21:38:58.270Z,39.90
2022-12-29T21:41:26.822Z,39.96
2022-12-29T21:44:13.870Z,39.94
2022-12-29T21:46:44.033Z,39.95
2022-12-29T21:49:12.420Z,39.91
2022-12-29T21:51:53.890Z,40.04
2022-12-29T21:54:42.767Z,40.15
2022-12-29T21:57:17.910Z,39.98
2022-12-29T22:00:07.774Z,40.03
2022-12-29T22:02:53.198Z,39.96
2022-12-29T22:05:38.736Z,39.94
2022-12-29T22:08:24.131Z,39.96
2022-12-29T22:11:09.730Z,40.09
2022-12-29T22:13:40.075Z,39.98
2022-12-29T22:16:11.605Z,39.91
2022-12-29T22:18:41.192Z,39.98
2022-12-29T22:21:11.095Z,40.05
2022-12-29T22:23:39.569Z,39.96
2022-12-29T22:26:09.640Z,39.96
2022-12-29T22:28:38.622Z,39.98
2022-12-29T22:31:07.748Z,40.00
2022-12-29T22:33:37.288Z,40.01
2022-12-29T22:36:06.066Z,40.01
2022-12-29T22:38:34.274Z,40.07
2022-12-29T22:41:02.360Z,39.95
2022-12-29T22:43:30.767Z,40.03
2022-12-29T22:46:04.300Z,40.17
2022-12-29T22:48:33.588Z,40.13
2022-12-29T22:51:03.973Z,40.00
2022-12-29T22:53:32.331Z,39.91
2022-12-29T22:56:05.243Z,40.06
2022-12-29T22:58:33.390Z,39.94
2022-12-29T23:01:01.951Z,40.03
2022-12-29T23:03:30.163Z,40.08
2022-12-29T23:05:59.343Z,40.08
2022-12-29T23:08:30.414Z,39.97
2022-12-29T23:10:58.649Z,39.98
2022-12-29T23:13:26.791Z,40.12
2022-12-29T23:15:55.025Z,40.06
2022-12-29T23:18:23.378Z,39.96
2022-12-29T23:20:52.116Z,40.04
2022-12-29T23:23:48.435Z,39.96
2022-12-29T23:26:19.327Z,40.05
2022-12-29T23:28:47.779Z,40.03
2022-12-29T23:31:16.235Z,39.92
2022-12-29T23:33:44.572Z,39.92
2022-12-29T23:36:12.712Z,40.02
2022-12-29T23:38:40.852Z,40.03
2022-12-29T23:41:09.135Z,40.05
2022-12-29T23:43:39.067Z,40.02
2022-12-29T23:46:08.840Z,40.17
2022-12-29T23:48:37.495Z,40.01
2022-12-29T23:51:06.918Z,39.88
2022-12-29T23:53:35.148Z,40.04
2022-12-29T23:56:03.855Z,40.01
2022-12-29T23:58:32.624Z,39.94
